sensor_id;sensor_type;location;lat;lon;timestamp;P1;durP1;ratioP1;P2;durP2;ratioP2
8536;SDS011;4306;50.210;10.628;2023-07-20T00:00:15;8.85;;;3.58;;
8536;SDS011;4306;50.210;10.628;2023-07-20T00:02:42;7.00;;;3.28;;
8536;SDS011;4306;50.210;10.628;2023-07-20T00:05:09;7.63;;;3.75;;
8536;SDS011;4306;50.210;10.628;2023-07-20T00:07:36;8.52;;;3.63;;
8536;SDS011;4306;50.210;10.628;2023-07-20T00:10:03;7.35;;;3.78;;
8536;SDS011;4306;50.210;10.628;2023-07-20T00:12:31;7.35;;;3.65;;
8536;SDS011;4306;50.210;10.628;2023-07-20T00:15:01;8.70;;;4.35;;
8536;SDS011;4306;50.210;10.628;2023-07-20T00:17:28;8.15;;;3.67;;
8536;SDS011;4306;50.210;10.628;2023-07-20T00:19:55;6.95;;;3.78;;
8536;SDS011;4306;50.210;10.628;2023-07-20T00:22:21;7.57;;;4.43;;
8536;SDS011;4306;50.210;10.628;2023-07-20T00:24:48;5.93;;;3.63;;
8536;SDS011;4306;50.210;10.628;2023-07-20T00:27:15;4.95;;;3.65;;
8536;SDS011;4306;50.210;10.628;2023-07-20T00:29:42;7.70;;;3.80;;
8536;SDS011;4306;50.210;10.628;2023-07-20T00:32:10;7.40;;;3.75;;
8536;SDS011;4306;50.210;10.628;2023-07-20T00:34:37;6.75;;;3.55;;
8536;SDS011;4306;50.210;10.628;2023-07-20T00:37:04;9.38;;;3.45;;
8536;SDS011;4306;50.210;10.628;2023-07-20T00:39:31;9.27;;;3.83;;
8536;SDS011;4306;50.210;10.628;2023-07-20T00:41:57;7.90;;;3.60;;
8536;SDS011;4306;50.210;10.628;2023-07-20T00:44:25;8.40;;;4.00;;
8536;SDS011;4306;50.210;10.628;2023-07-20T00:46:52;6.75;;;3.40;;
8536;SDS011;4306;50.210;10.628;2023-07-20T00:49:20;8.95;;;3.58;;
8536;SDS011;4306;50.210;10.628;2023-07-20T00:51:48;12.65;;;4.15;;
8536;SDS011;4306;50.210;10.628;2023-07-20T00:54:16;7.35;;;4.07;;
8536;SDS011;4306;50.210;10.628;2023-07-20T00:56:44;12.27;;;4.50;;
8536;SDS011;4306;50.210;10.628;2023-07-20T00:59:12;5.22;;;3.70;;
8536;SDS011;4306;50.210;10.628;2023-07-20T01:01:40;5.78;;;3.60;;
8536;SDS011;4306;50.210;10.628;2023-07-20T01:04:06;8.38;;;4.00;;
8536;SDS011;4306;50.210;10.628;2023-07-20T01:06:36;6.70;;;3.55;;
8536;SDS011;4306;50.210;10.628;2023-07-20T01:09:13;8.65;;;3.80;;
8536;SDS011;4306;50.210;10.628;2023-07-20T01:11:43;8.35;;;3.70;;
8536;SDS011;4306;50.210;10.628;2023-07-20T01:14:18;7.35;;;3.25;;
8536;SDS011;4306;50.210;10.628;2023-07-20T01:16:47;6.40;;;3.80;;
8536;SDS011;4306;50.210;10.628;2023-07-20T01:19:15;7.78;;;3.67;;
8536;SDS011;4306;50.210;10.628;2023-07-20T01:21:45;6.40;;;4.03;;
8536;SDS011;4306;50.210;10.628;2023-07-20T01:24:32;6.65;;;3.88;;
8536;SDS011;4306;50.210;10.628;2023-07-20T01:30:32;6.18;;;3.58;;
8536;SDS011;4306;50.210;10.628;2023-07-20T01:36:04;6.70;;;3.75;;
8536;SDS011;4306;50.210;10.628;2023-07-20T01:38:33;5.38;;;3.50;;
8536;SDS011;4306;50.210;10.628;2023-07-20T01:41:00;7.57;;;3.58;;
8536;SDS011;4306;50.210;10.628;2023-07-20T01:43:29;4.75;;;3.50;;
8536;SDS011;4306;50.210;10.628;2023-07-20T01:45:55;6.55;;;3.17;;
8536;SDS011;4306;50.210;10.628;2023-07-20T01:48:22;6.50;;;3.45;;
8536;SDS011;4306;50.210;10.628;2023-07-20T01:50:49;8.18;;;3.38;;
8536;SDS011;4306;50.210;10.628;2023-07-20T01:53:18;6.25;;;4.05;;
8536;SDS011;4306;50.210;10.628;2023-07-20T01:55:45;7.18;;;3.97;;
8536;SDS011;4306;50.210;10.628;2023-07-20T01:58:12;8.73;;;3.90;;
8536;SDS011;4306;50.210;10.628;2023-07-20T02:00:39;7.03;;;3.97;;
8536;SDS011;4306;50.210;10.628;2023-07-20T02:03:06;10.65;;;3.85;;
8536;SDS011;4306;50.210;10.628;2023-07-20T02:05:33;5.30;;;3.55;;
8536;SDS011;4306;50.210;10.628;2023-07-20T02:08:00;5.90;;;3.58;;
8536;SDS011;4306;50.210;10.628;2023-07-20T02:10:28;7.20;;;4.32;;
8536;SDS011;4306;50.210;10.628;2023-07-20T02:12:55;6.38;;;3.53;;
8536;SDS011;4306;50.210;10.628;2023-07-20T02:15:22;7.53;;;4.50;;
8536;SDS011;4306;50.210;10.628;2023-07-20T02:17:49;6.60;;;3.92;;
8536;SDS011;4306;50.210;10.628;2023-07-20T02:20:16;7.75;;;3.60;;
8536;SDS011;4306;50.210;10.628;2023-07-20T02:22:44;4.72;;;3.33;;
8536;SDS011;4306;50.210;10.628;2023-07-20T02:25:11;7.93;;;3.67;;
8536;SDS011;4306;50.210;10.628;2023-07-20T02:27:40;6.57;;;3.67;;
8536;SDS011;4306;50.210;10.628;2023-07-20T02:30:07;5.18;;;3.40;;
8536;SDS011;4306;50.210;10.628;2023-07-20T02:32:36;7.45;;;3.75;;
8536;SDS011;4306;50.210;10.628;2023-07-20T02:35:04;6.70;;;3.20;;
8536;SDS011;4306;50.210;10.628;2023-07-20T02:37:32;4.47;;;3.15;;
8536;SDS011;4306;50.210;10.628;2023-07-20T02:39:59;5.60;;;3.15;;
8536;SDS011;4306;50.210;10.628;2023-07-20T02:42:26;8.63;;;4.10;;
8536;SDS011;4306;50.210;10.628;2023-07-20T02:44:55;5.80;;;3.40;;
8536;SDS011;4306;50.210;10.628;2023-07-20T02:47:22;5.72;;;3.53;;
8536;SDS011;4306;50.210;10.628;2023-07-20T02:49:49;10.02;;;3.92;;
8536;SDS011;4306;50.210;10.628;2023-07-20T02:52:16;6.88;;;3.85;;
8536;SDS011;4306;50.210;10.628;2023-07-20T02:54:43;5.90;;;3.95;;
8536;SDS011;4306;50.210;10.628;2023-07-20T02:57:10;9.15;;;4.13;;
8536;SDS011;4306;50.210;10.628;2023-07-20T02:59:37;6.22;;;3.42;;
8536;SDS011;4306;50.210;10.628;2023-07-20T03:02:06;5.72;;;3.28;;
8536;SDS011;4306;50.210;10.628;2023-07-20T03:04:34;7.43;;;3.30;;
8536;SDS011;4306;50.210;10.628;2023-07-20T03:07:02;4.78;;;3.35;;
8536;SDS011;4306;50.210;10.628;2023-07-20T03:09:29;5.53;;;3.60;;
8536;SDS011;4306;50.210;10.628;2023-07-20T03:11:56;4.80;;;3.25;;
8536;SDS011;4306;50.210;10.628;2023-07-20T03:14:23;5.78;;;3.97;;
8536;SDS011;4306;50.210;10.628;2023-07-20T03:16:50;4.90;;;3.60;;
8536;SDS011;4306;50.210;10.628;2023-07-20T03:19:18;7.72;;;3.65;;
8536;SDS011;4306;50.210;10.628;2023-07-20T03:21:45;6.13;;;3.83;;
8536;SDS011;4306;50.210;10.628;2023-07-20T03:24:12;5.50;;;3.60;;
8536;SDS011;4306;50.210;10.628;2023-07-20T03:26:39;6.47;;;3.22;;
8536;SDS011;4306;50.210;10.628;2023-07-20T03:29:06;9.50;;;4.20;;
8536;SDS011;4306;50.210;10.628;2023-07-20T03:31:33;6.10;;;4.00;;
8536;SDS011;4306;50.210;10.628;2023-07-20T03:34:00;7.68;;;4.43;;
8536;SDS011;4306;50.210;10.628;2023-07-20T03:36:28;6.43;;;3.67;;
8536;SDS011;4306;50.210;10.628;2023-07-20T03:38:56;4.55;;;3.45;;
8536;SDS011;4306;50.210;10.628;2023-07-20T03:41:23;6.25;;;3.50;;
8536;SDS011;4306;50.210;10.628;2023-07-20T03:43:50;7.43;;;3.30;;
8536;SDS011;4306;50.210;10.628;2023-07-20T03:46:17;5.57;;;3.55;;
8536;SDS011;4306;50.210;10.628;2023-07-20T03:48:44;6.35;;;3.88;;
8536;SDS011;4306;50.210;10.628;2023-07-20T03:51:11;5.18;;;4.00;;
8536;SDS011;4306;50.210;10.628;2023-07-20T03:53:39;6.85;;;3.90;;
8536;SDS011;4306;50.210;10.628;2023-07-20T03:56:07;9.35;;;4.18;;
8536;SDS011;4306;50.210;10.628;2023-07-20T03:58:34;5.57;;;3.90;;
8536;SDS011;4306;50.210;10.628;2023-07-20T04:01:02;6.55;;;3.95;;
8536;SDS011;4306;50.210;10.628;2023-07-20T04:03:29;7.28;;;3.95;;
8536;SDS011;4306;50.210;10.628;2023-07-20T04:05:56;9.55;;;4.93;;
8536;SDS011;4306;50.210;10.628;2023-07-20T04:08:23;6.80;;;4.30;;
8536;SDS011;4306;50.210;10.628;2023-07-20T04:10:52;9.52;;;4.10;;
8536;SDS011;4306;50.210;10.628;2023-07-20T04:13:19;5.85;;;3.92;;
8536;SDS011;4306;50.210;10.628;2023-07-20T04:15:46;3.30;;;2.38;;
8536;SDS011;4306;50.210;10.628;2023-07-20T04:18:13;4.22;;;2.53;;
8536;SDS011;4306;50.210;10.628;2023-07-20T04:20:40;4.35;;;2.75;;
8536;SDS011;4306;50.210;10.628;2023-07-20T04:23:07;6.80;;;3.97;;
8536;SDS011;4306;50.210;10.628;2023-07-20T04:25:34;7.22;;;4.00;;
8536;SDS011;4306;50.210;10.628;2023-07-20T04:28:05;6.13;;;3.90;;
8536;SDS011;4306;50.210;10.628;2023-07-20T04:30:34;4.28;;;3.03;;
8536;SDS011;4306;50.210;10.628;2023-07-20T04:33:02;6.03;;;3.72;;
8536;SDS011;4306;50.210;10.628;2023-07-20T04:35:45;5.72;;;3.60;;
8536;SDS011;4306;50.210;10.628;2023-07-20T04:38:14;5.40;;;3.50;;
8536;SDS011;4306;50.210;10.628;2023-07-20T04:40:42;6.22;;;3.78;;
8536;SDS011;4306;50.210;10.628;2023-07-20T04:43:11;7.38;;;4.07;;
8536;SDS011;4306;50.210;10.628;2023-07-20T04:45:38;5.70;;;4.10;;
8536;SDS011;4306;50.210;10.628;2023-07-20T04:48:07;6.53;;;4.50;;
8536;SDS011;4306;50.210;10.628;2023-07-20T04:50:36;6.90;;;3.90;;
8536;SDS011;4306;50.210;10.628;2023-07-20T04:53:03;5.65;;;3.83;;
8536;SDS011;4306;50.210;10.628;2023-07-20T04:55:30;4.50;;;3.53;;
8536;SDS011;4306;50.210;10.628;2023-07-20T04:57:58;4.38;;;3.55;;
8536;SDS011;4306;50.210;10.628;2023-07-20T05:00:27;6.63;;;3.50;;
8536;SDS011;4306;50.210;10.628;2023-07-20T05:02:54;7.38;;;3.00;;
8536;SDS011;4306;50.210;10.628;2023-07-20T05:05:21;4.28;;;3.40;;
8536;SDS011;4306;50.210;10.628;2023-07-20T05:07:48;9.35;;;3.55;;
8536;SDS011;4306;50.210;10.628;2023-07-20T05:10:15;4.38;;;3.45;;
8536;SDS011;4306;50.210;10.628;2023-07-20T05:12:42;8.23;;;3.97;;
8536;SDS011;4306;50.210;10.628;2023-07-20T05:15:09;5.65;;;3.85;;
8536;SDS011;4306;50.210;10.628;2023-07-20T05:17:38;8.02;;;4.00;;
8536;SDS011;4306;50.210;10.628;2023-07-20T05:20:05;5.40;;;3.92;;
8536;SDS011;4306;50.210;10.628;2023-07-20T05:22:35;5.35;;;3.80;;
8536;SDS011;4306;50.210;10.628;2023-07-20T05:25:05;6.20;;;3.65;;
8536;SDS011;4306;50.210;10.628;2023-07-20T05:27:33;8.68;;;6.13;;
8536;SDS011;4306;50.210;10.628;2023-07-20T05:30:00;11.52;;;6.82;;
8536;SDS011;4306;50.210;10.628;2023-07-20T05:32:27;6.53;;;4.10;;
8536;SDS011;4306;50.210;10.628;2023-07-20T05:34:56;7.57;;;4.70;;
8536;SDS011;4306;50.210;10.628;2023-07-20T05:37:23;9.50;;;4.40;;
8536;SDS011;4306;50.210;10.628;2023-07-20T05:39:50;12.40;;;4.25;;
8536;SDS011;4306;50.210;10.628;2023-07-20T05:42:17;6.90;;;3.80;;
8536;SDS011;4306;50.210;10.628;2023-07-20T05:44:44;6.55;;;4.15;;
8536;SDS011;4306;50.210;10.628;2023-07-20T05:47:12;8.13;;;3.70;;
8536;SDS011;4306;50.210;10.628;2023-07-20T05:49:39;8.20;;;3.97;;
8536;SDS011;4306;50.210;10.628;2023-07-20T05:52:07;7.28;;;4.13;;
8536;SDS011;4306;50.210;10.628;2023-07-20T05:54:34;7.28;;;4.25;;
8536;SDS011;4306;50.210;10.628;2023-07-20T05:57:01;5.82;;;4.35;;
8536;SDS011;4306;50.210;10.628;2023-07-20T05:59:28;6.30;;;4.35;;
8536;SDS011;4306;50.210;10.628;2023-07-20T06:01:55;5.10;;;4.13;;
8536;SDS011;4306;50.210;10.628;2023-07-20T06:04:22;6.90;;;4.18;;
8536;SDS011;4306;50.210;10.628;2023-07-20T06:06:49;8.98;;;4.55;;
8536;SDS011;4306;50.210;10.628;2023-07-20T06:09:18;7.82;;;4.13;;
8536;SDS011;4306;50.210;10.628;2023-07-20T06:11:44;8.30;;;4.55;;
8536;SDS011;4306;50.210;10.628;2023-07-20T06:14:11;5.65;;;4.00;;
8536;SDS011;4306;50.210;10.628;2023-07-20T06:16:38;5.35;;;3.78;;
8536;SDS011;4306;50.210;10.628;2023-07-20T06:19:05;7.05;;;4.07;;
8536;SDS011;4306;50.210;10.628;2023-07-20T06:21:32;6.75;;;4.22;;
8536;SDS011;4306;50.210;10.628;2023-07-20T06:23:59;6.00;;;3.83;;
8536;SDS011;4306;50.210;10.628;2023-07-20T06:26:28;5.43;;;3.67;;
8536;SDS011;4306;50.210;10.628;2023-07-20T06:28:55;5.60;;;3.95;;
8536;SDS011;4306;50.210;10.628;2023-07-20T06:31:22;7.75;;;3.83;;
8536;SDS011;4306;50.210;10.628;2023-07-20T06:33:49;6.07;;;3.95;;
8536;SDS011;4306;50.210;10.628;2023-07-20T06:36:17;5.60;;;3.55;;
8536;SDS011;4306;50.210;10.628;2023-07-20T06:38:44;5.82;;;3.70;;
8536;SDS011;4306;50.210;10.628;2023-07-20T06:41:11;5.63;;;3.75;;
8536;SDS011;4306;50.210;10.628;2023-07-20T06:43:39;6.43;;;3.63;;
8536;SDS011;4306;50.210;10.628;2023-07-20T06:46:06;6.95;;;3.90;;
8536;SDS011;4306;50.210;10.628;2023-07-20T06:48:33;10.65;;;4.50;;
8536;SDS011;4306;50.210;10.628;2023-07-20T06:51:00;6.10;;;3.67;;
8536;SDS011;4306;50.210;10.628;2023-07-20T06:53:27;5.25;;;3.67;;
8536;SDS011;4306;50.210;10.628;2023-07-20T06:55:54;7.57;;;3.72;;
8536;SDS011;4306;50.210;10.628;2023-07-20T06:58:22;7.10;;;3.58;;
8536;SDS011;4306;50.210;10.628;2023-07-20T07:00:51;9.98;;;3.80;;
8536;SDS011;4306;50.210;10.628;2023-07-20T07:03:18;6.72;;;3.63;;
8536;SDS011;4306;50.210;10.628;2023-07-20T07:05:46;7.95;;;3.90;;
8536;SDS011;4306;50.210;10.628;2023-07-20T07:08:13;4.78;;;3.35;;
8536;SDS011;4306;50.210;10.628;2023-07-20T07:10:40;7.15;;;3.20;;
8536;SDS011;4306;50.210;10.628;2023-07-20T07:13:07;5.72;;;3.13;;
8536;SDS011;4306;50.210;10.628;2023-07-20T07:15:34;9.82;;;4.13;;
8536;SDS011;4306;50.210;10.628;2023-07-20T07:18:02;5.00;;;3.60;;
8536;SDS011;4306;50.210;10.628;2023-07-20T07:20:29;6.63;;;3.50;;
8536;SDS011;4306;50.210;10.628;2023-07-20T07:22:56;5.72;;;3.15;;
8536;SDS011;4306;50.210;10.628;2023-07-20T07:25:23;5.13;;;3.10;;
8536;SDS011;4306;50.210;10.628;2023-07-20T07:30:20;4.30;;;2.53;;
8536;SDS011;4306;50.210;10.628;2023-07-20T07:32:47;4.40;;;2.83;;
8536;SDS011;4306;50.210;10.628;2023-07-20T07:35:16;7.13;;;2.85;;
8536;SDS011;4306;50.210;10.628;2023-07-20T07:37:43;6.03;;;2.97;;
8536;SDS011;4306;50.210;10.628;2023-07-20T07:40:11;7.45;;;2.42;;
8536;SDS011;4306;50.210;10.628;2023-07-20T07:42:39;4.68;;;2.85;;
8536;SDS011;4306;50.210;10.628;2023-07-20T07:45:07;7.90;;;2.70;;
8536;SDS011;4306;50.210;10.628;2023-07-20T07:47:34;4.70;;;2.67;;
8536;SDS011;4306;50.210;10.628;2023-07-20T07:50:01;5.90;;;2.50;;
8536;SDS011;4306;50.210;10.628;2023-07-20T07:52:30;5.60;;;2.72;;
8536;SDS011;4306;50.210;10.628;2023-07-20T07:54:57;6.45;;;2.70;;
8536;SDS011;4306;50.210;10.628;2023-07-20T07:57:25;4.97;;;2.63;;
8536;SDS011;4306;50.210;10.628;2023-07-20T07:59:52;5.10;;;2.60;;
8536;SDS011;4306;50.210;10.628;2023-07-20T08:02:19;6.45;;;3.10;;
8536;SDS011;4306;50.210;10.628;2023-07-20T08:04:46;4.05;;;2.45;;
8536;SDS011;4306;50.210;10.628;2023-07-20T08:07:13;6.00;;;3.10;;
8536;SDS011;4306;50.210;10.628;2023-07-20T08:09:41;8.93;;;2.85;;
8536;SDS011;4306;50.210;10.628;2023-07-20T08:12:08;6.00;;;2.53;;
8536;SDS011;4306;50.210;10.628;2023-07-20T08:14:35;5.55;;;2.30;;
8536;SDS011;4306;50.210;10.628;2023-07-20T08:17:02;4.72;;;2.25;;
8536;SDS011;4306;50.210;10.628;2023-07-20T08:19:30;4.55;;;2.28;;
8536;SDS011;4306;50.210;10.628;2023-07-20T08:21:56;4.50;;;2.40;;
8536;SDS011;4306;50.210;10.628;2023-07-20T08:24:23;3.72;;;2.35;;
8536;SDS011;4306;50.210;10.628;2023-07-20T08:26:52;6.32;;;2.30;;
8536;SDS011;4306;50.210;10.628;2023-07-20T08:29:19;3.35;;;2.25;;
8536;SDS011;4306;50.210;10.628;2023-07-20T08:31:46;4.95;;;2.42;;
8536;SDS011;4306;50.210;10.628;2023-07-20T08:34:13;4.80;;;2.58;;
8536;SDS011;4306;50.210;10.628;2023-07-20T08:36:40;4.22;;;2.25;;
8536;SDS011;4306;50.210;10.628;2023-07-20T08:39:07;3.60;;;2.10;;
8536;SDS011;4306;50.210;10.628;2023-07-20T08:41:34;3.80;;;2.20;;
8536;SDS011;4306;50.210;10.628;2023-07-20T08:44:03;3.78;;;2.40;;
8536;SDS011;4306;50.210;10.628;2023-07-20T08:46:31;4.93;;;2.60;;
8536;SDS011;4306;50.210;10.628;2023-07-20T08:49:01;5.90;;;2.50;;
8536;SDS011;4306;50.210;10.628;2023-07-20T08:51:28;3.70;;;2.60;;
8536;SDS011;4306;50.210;10.628;2023-07-20T08:53:57;3.10;;;2.35;;
8536;SDS011;4306;50.210;10.628;2023-07-20T08:56:25;3.83;;;2.30;;
8536;SDS011;4306;50.210;10.628;2023-07-20T08:58:53;5.55;;;2.70;;
8536;SDS011;4306;50.210;10.628;2023-07-20T09:01:22;4.47;;;2.40;;
8536;SDS011;4306;50.210;10.628;2023-07-20T09:03:49;3.58;;;2.25;;
8536;SDS011;4306;50.210;10.628;2023-07-20T09:06:16;5.03;;;2.50;;
8536;SDS011;4306;50.210;10.628;2023-07-20T09:08:43;3.55;;;2.30;;
8536;SDS011;4306;50.210;10.628;2023-07-20T09:11:11;4.47;;;2.40;;
8536;SDS011;4306;50.210;10.628;2023-07-20T09:13:39;3.80;;;2.38;;
8536;SDS011;4306;50.210;10.628;2023-07-20T09:16:05;3.55;;;2.45;;
8536;SDS011;4306;50.210;10.628;2023-07-20T09:18:34;4.03;;;2.30;;
8536;SDS011;4306;50.210;10.628;2023-07-20T09:21:02;4.78;;;2.63;;
8536;SDS011;4306;50.210;10.628;2023-07-20T09:23:31;4.80;;;2.88;;
8536;SDS011;4306;50.210;10.628;2023-07-20T09:25:58;3.38;;;2.35;;
8536;SDS011;4306;50.210;10.628;2023-07-20T09:28:25;3.65;;;2.28;;
8536;SDS011;4306;50.210;10.628;2023-07-20T09:30:54;4.28;;;2.45;;
8536;SDS011;4306;50.210;10.628;2023-07-20T09:33:22;5.30;;;2.78;;
8536;SDS011;4306;50.210;10.628;2023-07-20T09:35:50;9.07;;;2.60;;
8536;SDS011;4306;50.210;10.628;2023-07-20T09:38:17;3.40;;;2.20;;
8536;SDS011;4306;50.210;10.628;2023-07-20T09:40:44;3.58;;;2.17;;
8536;SDS011;4306;50.210;10.628;2023-07-20T09:43:11;3.30;;;2.20;;
8536;SDS011;4306;50.210;10.628;2023-07-20T09:45:42;3.13;;;2.10;;
8536;SDS011;4306;50.210;10.628;2023-07-20T09:48:09;3.20;;;2.20;;
8536;SDS011;4306;50.210;10.628;2023-07-20T09:50:40;4.97;;;2.45;;
8536;SDS011;4306;50.210;10.628;2023-07-20T09:53:11;7.45;;;2.47;;
8536;SDS011;4306;50.210;10.628;2023-07-20T09:55:40;6.10;;;2.50;;
8536;SDS011;4306;50.210;10.628;2023-07-20T09:58:08;4.15;;;2.42;;
8536;SDS011;4306;50.210;10.628;2023-07-20T10:00:36;4.75;;;2.47;;
8536;SDS011;4306;50.210;10.628;2023-07-20T10:03:04;3.38;;;2.30;;
8536;SDS011;4306;50.210;10.628;2023-07-20T10:08:55;4.78;;;2.55;;
8536;SDS011;4306;50.210;10.628;2023-07-20T10:11:27;4.32;;;2.30;;
8536;SDS011;4306;50.210;10.628;2023-07-20T10:13:56;3.50;;;2.20;;
8536;SDS011;4306;50.210;10.628;2023-07-20T10:16:26;4.60;;;2.50;;
8536;SDS011;4306;50.210;10.628;2023-07-20T10:18:59;3.10;;;2.42;;
8536;SDS011;4306;50.210;10.628;2023-07-20T10:21:31;4.65;;;2.35;;
8536;SDS011;4306;50.210;10.628;2023-07-20T10:24:03;5.28;;;2.20;;
8536;SDS011;4306;50.210;10.628;2023-07-20T10:26:31;4.07;;;2.47;;
8536;SDS011;4306;50.210;10.628;2023-07-20T10:28:58;4.72;;;2.50;;
8536;SDS011;4306;50.210;10.628;2023-07-20T10:31:25;6.05;;;2.55;;
8536;SDS011;4306;50.210;10.628;2023-07-20T10:33:54;3.88;;;2.20;;
8536;SDS011;4306;50.210;10.628;2023-07-20T10:36:24;3.53;;;2.22;;
8536;SDS011;4306;50.210;10.628;2023-07-20T10:38:52;3.05;;;2.30;;
8536;SDS011;4306;50.210;10.628;2023-07-20T10:41:22;4.03;;;2.42;;
8536;SDS011;4306;50.210;10.628;2023-07-20T10:43:58;4.50;;;2.00;;
8536;SDS011;4306;50.210;10.628;2023-07-20T10:46:42;3.47;;;2.30;;
8536;SDS011;4306;50.210;10.628;2023-07-20T10:49:10;5.05;;;2.40;;
8536;SDS011;4306;50.210;10.628;2023-07-20T10:51:40;5.22;;;2.40;;
8536;SDS011;4306;50.210;10.628;2023-07-20T10:54:08;5.32;;;2.20;;
8536;SDS011;4306;50.210;10.628;2023-07-20T10:56:57;4.05;;;2.55;;
8536;SDS011;4306;50.210;10.628;2023-07-20T10:59:45;2.72;;;1.90;;
8536;SDS011;4306;50.210;10.628;2023-07-20T11:02:16;3.60;;;2.10;;
8536;SDS011;4306;50.210;10.628;2023-07-20T11:04:45;6.18;;;2.08;;
8536;SDS011;4306;50.210;10.628;2023-07-20T11:07:15;3.67;;;1.92;;
8536;SDS011;4306;50.210;10.628;2023-07-20T11:09:42;3.58;;;1.98;;
8536;SDS011;4306;50.210;10.628;2023-07-20T11:12:11;2.75;;;1.80;;
8536;SDS011;4306;50.210;10.628;2023-07-20T11:14:40;3.80;;;1.77;;
8536;SDS011;4306;50.210;10.628;2023-07-20T11:17:11;4.03;;;2.00;;
8536;SDS011;4306;50.210;10.628;2023-07-20T11:19:39;3.35;;;2.30;;
8536;SDS011;4306;50.210;10.628;2023-07-20T11:22:06;4.25;;;2.03;;
8536;SDS011;4306;50.210;10.628;2023-07-20T11:24:34;4.18;;;1.77;;
8536;SDS011;4306;50.210;10.628;2023-07-20T11:27:04;3.33;;;1.80;;
8536;SDS011;4306;50.210;10.628;2023-07-20T11:29:32;3.15;;;1.70;;
8536;SDS011;4306;50.210;10.628;2023-07-20T11:32:01;3.08;;;1.38;;
8536;SDS011;4306;50.210;10.628;2023-07-20T11:34:30;2.65;;;1.60;;
8536;SDS011;4306;50.210;10.628;2023-07-20T11:36:57;2.22;;;1.52;;
8536;SDS011;4306;50.210;10.628;2023-07-20T11:39:24;2.30;;;1.35;;
8536;SDS011;4306;50.210;10.628;2023-07-20T11:41:52;3.92;;;1.50;;
8536;SDS011;4306;50.210;10.628;2023-07-20T11:44:21;5.22;;;1.85;;
8536;SDS011;4306;50.210;10.628;2023-07-20T11:46:53;3.47;;;1.52;;
8536;SDS011;4306;50.210;10.628;2023-07-20T11:49:30;2.70;;;1.60;;
8536;SDS011;4306;50.210;10.628;2023-07-20T11:52:07;4.28;;;1.83;;
8536;SDS011;4306;50.210;10.628;2023-07-20T11:54:37;2.88;;;1.60;;
8536;SDS011;4306;50.210;10.628;2023-07-20T11:57:05;3.67;;;1.70;;
8536;SDS011;4306;50.210;10.628;2023-07-20T11:59:32;4.30;;;1.67;;
8536;SDS011;4306;50.210;10.628;2023-07-20T12:02:02;3.33;;;2.00;;
8536;SDS011;4306;50.210;10.628;2023-07-20T12:04:30;3.78;;;1.52;;
8536;SDS011;4306;50.210;10.628;2023-07-20T12:06:57;3.42;;;1.55;;
8536;SDS011;4306;50.210;10.628;2023-07-20T12:09:25;3.75;;;1.92;;
8536;SDS011;4306;50.210;10.628;2023-07-20T12:11:52;3.22;;;1.60;;
8536;SDS011;4306;50.210;10.628;2023-07-20T12:14:19;2.58;;;1.55;;
8536;SDS011;4306;50.210;10.628;2023-07-20T12:16:51;3.38;;;1.77;;
8536;SDS011;4306;50.210;10.628;2023-07-20T12:19:21;2.20;;;1.50;;
8536;SDS011;4306;50.210;10.628;2023-07-20T12:21:56;2.97;;;1.80;;
8536;SDS011;4306;50.210;10.628;2023-07-20T12:24:25;2.70;;;1.73;;
8536;SDS011;4306;50.210;10.628;2023-07-20T12:26:55;2.75;;;1.67;;
8536;SDS011;4306;50.210;10.628;2023-07-20T12:29:23;2.95;;;1.38;;
8536;SDS011;4306;50.210;10.628;2023-07-20T12:31:50;2.92;;;2.13;;
8536;SDS011;4306;50.210;10.628;2023-07-20T12:34:17;3.25;;;1.70;;
8536;SDS011;4306;50.210;10.628;2023-07-20T12:36:45;3.60;;;1.80;;
8536;SDS011;4306;50.210;10.628;2023-07-20T12:39:12;2.53;;;1.70;;
8536;SDS011;4306;50.210;10.628;2023-07-20T12:41:39;3.20;;;2.40;;
8536;SDS011;4306;50.210;10.628;2023-07-20T12:44:06;2.80;;;2.13;;
8536;SDS011;4306;50.210;10.628;2023-07-20T12:46:33;2.55;;;1.80;;
8536;SDS011;4306;50.210;10.628;2023-07-20T12:49:02;3.90;;;2.30;;
8536;SDS011;4306;50.210;10.628;2023-07-20T12:51:29;3.75;;;1.65;;
8536;SDS011;4306;50.210;10.628;2023-07-20T12:53:57;3.22;;;2.25;;
8536;SDS011;4306;50.210;10.628;2023-07-20T12:56:24;3.30;;;1.92;;
8536;SDS011;4306;50.210;10.628;2023-07-20T12:58:52;5.60;;;2.20;;
8536;SDS011;4306;50.210;10.628;2023-07-20T13:01:18;3.00;;;2.13;;
8536;SDS011;4306;50.210;10.628;2023-07-20T13:03:46;3.55;;;2.15;;
8536;SDS011;4306;50.210;10.628;2023-07-20T13:06:13;3.70;;;2.10;;
8536;SDS011;4306;50.210;10.628;2023-07-20T13:08:40;3.60;;;1.80;;
8536;SDS011;4306;50.210;10.628;2023-07-20T13:11:09;6.65;;;2.22;;
8536;SDS011;4306;50.210;10.628;2023-07-20T13:13:35;3.38;;;2.13;;
8536;SDS011;4306;50.210;10.628;2023-07-20T13:16:02;2.97;;;1.60;;
8536;SDS011;4306;50.210;10.628;2023-07-20T13:18:30;2.60;;;1.95;;
8536;SDS011;4306;50.210;10.628;2023-07-20T13:20:57;3.47;;;2.00;;
8536;SDS011;4306;50.210;10.628;2023-07-20T13:23:24;5.13;;;2.30;;
8536;SDS011;4306;50.210;10.628;2023-07-20T13:25:51;3.38;;;1.95;;
8536;SDS011;4306;50.210;10.628;2023-07-20T13:28:19;2.70;;;1.80;;
8536;SDS011;4306;50.210;10.628;2023-07-20T13:30:46;2.80;;;1.90;;
8536;SDS011;4306;50.210;10.628;2023-07-20T13:33:13;3.63;;;2.03;;
8536;SDS011;4306;50.210;10.628;2023-07-20T13:35:40;3.72;;;2.20;;
8536;SDS011;4306;50.210;10.628;2023-07-20T13:38:07;3.30;;;2.22;;
8536;SDS011;4306;50.210;10.628;2023-07-20T13:40:34;4.30;;;2.10;;
8536;SDS011;4306;50.210;10.628;2023-07-20T13:43:02;4.63;;;2.47;;
8536;SDS011;4306;50.210;10.628;2023-07-20T13:45:30;3.65;;;1.80;;
8536;SDS011;4306;50.210;10.628;2023-07-20T13:47:57;2.72;;;1.75;;
8536;SDS011;4306;50.210;10.628;2023-07-20T13:50:24;4.45;;;2.00;;
8536;SDS011;4306;50.210;10.628;2023-07-20T13:52:51;2.38;;;1.90;;
8536;SDS011;4306;50.210;10.628;2023-07-20T13:55:18;2.83;;;1.95;;
8536;SDS011;4306;50.210;10.628;2023-07-20T13:57:45;3.17;;;2.08;;
8536;SDS011;4306;50.210;10.628;2023-07-20T14:00:12;3.88;;;1.92;;
8536;SDS011;4306;50.210;10.628;2023-07-20T14:02:41;3.17;;;1.83;;
8536;SDS011;4306;50.210;10.628;2023-07-20T14:05:08;5.05;;;2.20;;
8536;SDS011;4306;50.210;10.628;2023-07-20T14:07:35;5.90;;;2.08;;
8536;SDS011;4306;50.210;10.628;2023-07-20T14:10:02;3.20;;;1.98;;
8536;SDS011;4306;50.210;10.628;2023-07-20T14:12:30;3.08;;;2.10;;
8536;SDS011;4306;50.210;10.628;2023-07-20T14:14:57;6.03;;;1.80;;
8536;SDS011;4306;50.210;10.628;2023-07-20T14:17:24;4.00;;;2.13;;
8536;SDS011;4306;50.210;10.628;2023-07-20T14:19:52;4.00;;;1.85;;
8536;SDS011;4306;50.210;10.628;2023-07-20T14:22:19;4.35;;;1.88;;
8536;SDS011;4306;50.210;10.628;2023-07-20T14:24:46;4.30;;;1.73;;
8536;SDS011;4306;50.210;10.628;2023-07-20T14:27:13;3.65;;;1.70;;
8536;SDS011;4306;50.210;10.628;2023-07-20T14:29:40;2.78;;;1.90;;
8536;SDS011;4306;50.210;10.628;2023-07-20T14:32:07;4.15;;;1.92;;
8536;SDS011;4306;50.210;10.628;2023-07-20T14:34:34;2.67;;;1.83;;
8536;SDS011;4306;50.210;10.628;2023-07-20T14:37:03;4.55;;;2.03;;
8536;SDS011;4306;50.210;10.628;2023-07-20T14:39:30;3.63;;;1.88;;
8536;SDS011;4306;50.210;10.628;2023-07-20T14:41:57;4.43;;;3.00;;
8536;SDS011;4306;50.210;10.628;2023-07-20T14:44:24;4.72;;;2.20;;
8536;SDS011;4306;50.210;10.628;2023-07-20T14:46:51;4.30;;;1.80;;
8536;SDS011;4306;50.210;10.628;2023-07-20T14:49:19;4.03;;;1.92;;
8536;SDS011;4306;50.210;10.628;2023-07-20T14:51:46;2.70;;;1.70;;
8536;SDS011;4306;50.210;10.628;2023-07-20T14:54:16;2.83;;;2.10;;
8536;SDS011;4306;50.210;10.628;2023-07-20T14:56:48;5.13;;;2.22;;
8536;SDS011;4306;50.210;10.628;2023-07-20T14:59:17;4.28;;;2.17;;
8536;SDS011;4306;50.210;10.628;2023-07-20T15:01:44;3.03;;;1.92;;
8536;SDS011;4306;50.210;10.628;2023-07-20T15:04:11;2.95;;;2.05;;
8536;SDS011;4306;50.210;10.628;2023-07-20T15:06:39;3.63;;;2.10;;
8536;SDS011;4306;50.210;10.628;2023-07-20T15:09:06;2.88;;;2.00;;
8536;SDS011;4306;50.210;10.628;2023-07-20T15:11:35;4.00;;;2.30;;
8536;SDS011;4306;50.210;10.628;2023-07-20T15:14:02;3.08;;;1.90;;
8536;SDS011;4306;50.210;10.628;2023-07-20T15:16:29;2.88;;;1.80;;